Time;durP1;ratioP1;P1;durP2;ratioP2;P2;SDS_P1;SDS_P2;PMS_P1;PMS_P2;Temp;Humidity;BMP_temperature;BMP_pressure;BME280_temperature;BME280_humidity;BME280_pressure;Samples;Min_cycle;Max_cycle;Signal;HPM_P1;HPM_P2
2023/12/05 00:01:51;;;;;;;1.98;1.30;;;20.00;33.20;;;;;;5034880;28;20064;-48
2023/12/05 00:04:17;;;;;;;1.42;1.13;;;20.00;33.20;;;;;;5035660;28;20113;-51
2023/12/05 00:06:42;;;;;;;1.65;1.27;;;20.00;33.20;;;;;;5034803;28;20026;-52
2023/12/05 00:09:08;;;;;;;1.38;1.13;;;20.00;33.30;;;;;;5000035;28;20045;-51
2023/12/05 00:11:34;;;;;;;1.27;0.80;;;20.00;33.30;;;;;;5035374;28;20117;-56
2023/12/05 00:14:00;;;;;;;1.25;0.95;;;20.00;33.30;;;;;;5035312;28;20026;-54
2023/12/05 00:16:27;;;;;;;1.20;0.80;;;20.00;33.30;;;;;;5034885;28;20032;-54
2023/12/05 00:18:53;;;;;;;1.10;1.00;;;20.00;33.30;;;;;;5034798;28;20029;-51
2023/12/05 00:21:18;;;;;;;1.60;1.10;;;20.00;33.40;;;;;;5017939;28;20456;-50
2023/12/05 00:23:44;;;;;;;1.40;0.93;;;20.00;33.40;;;;;;5017939;28;20052;-48
2023/12/05 00:26:10;;;;;;;1.10;0.90;;;20.00;33.40;;;;;;5035276;28;20021;-49
2023/12/05 00:28:36;;;;;;;1.30;0.90;;;20.00;33.40;;;;;;5034518;28;20026;-54
2023/12/05 00:31:02;;;;;;;1.20;0.90;;;20.00;33.40;;;;;;5017702;28;20025;-49
2023/12/05 00:33:28;;;;;;;0.93;0.82;;;19.90;33.40;;;;;;5034396;28;20025;-50
2023/12/05 00:35:54;;;;;;;1.65;1.23;;;19.90;33.40;;;;;;5035459;28;20030;-49
2023/12/05 00:38:20;;;;;;;1.65;1.27;;;19.90;33.40;;;;;;5017179;28;20037;-48
2023/12/05 00:40:46;;;;;;;1.10;1.00;;;19.90;33.40;;;;;;5032561;28;20026;-51
2023/12/05 00:43:11;;;;;;;1.33;1.08;;;19.90;33.40;;;;;;5034438;28;20156;-46
2023/12/05 00:45:37;;;;;;;1.35;1.17;;;19.90;33.40;;;;;;5035154;28;20380;-52
2023/12/05 00:48:03;;;;;;;1.08;0.98;;;19.90;33.40;;;;;;5034220;28;20026;-51
2023/12/05 00:50:29;;;;;;;1.40;1.10;;;19.90;33.40;;;;;;5034729;28;20437;-51
2023/12/05 00:52:55;;;;;;;1.20;0.93;;;19.90;33.40;;;;;;5034301;28;20451;-47
2023/12/05 00:55:21;;;;;;;1.10;1.00;;;19.90;33.40;;;;;;5034230;28;20451;-54
2023/12/05 00:57:47;;;;;;;1.27;1.08;;;19.80;33.40;;;;;;5034499;28;20025;-50
2023/12/05 01:00:13;;;;;;;1.50;1.10;;;19.80;33.40;;;;;;5033325;28;20411;-50
2023/12/05 01:02:39;;;;;;;1.17;0.90;;;19.80;33.40;;;;;;5031018;28;20045;-54
2023/12/05 01:05:09;;;;;;;1.38;1.00;;;19.80;33.40;;;;;;5033775;28;20095;-53
2023/12/05 01:07:36;;;;;;;1.10;1.00;;;19.80;33.50;;;;;;5032812;28;20025;-50
2023/12/05 01:10:03;;;;;;;1.08;0.93;;;19.80;33.50;;;;;;5034172;28;20047;-49
2023/12/05 01:12:29;;;;;;;1.00;0.90;;;19.80;33.50;;;;;;5034163;28;20087;-49
2023/12/05 01:14:58;;;;;;;1.08;0.98;;;19.80;33.50;;;;;;5034108;28;20452;-55
2023/12/05 01:17:25;;;;;;;1.40;1.05;;;19.80;33.50;;;;;;5032922;28;20439;-54
2023/12/05 01:19:50;;;;;;;1.08;0.90;;;19.80;33.50;;;;;;5031966;28;20038;-49
2023/12/05 01:22:16;;;;;;;1.08;0.98;;;19.80;33.50;;;;;;5033688;28;20038;-46
2023/12/05 01:24:42;;;;;;;0.90;0.75;;;19.80;33.60;;;;;;5033524;28;20322;-50
2023/12/05 01:27:08;;;;;;;1.50;1.00;;;19.80;33.60;;;;;;5034015;28;20152;-51
2023/12/05 01:29:34;;;;;;;2.08;1.30;;;19.80;33.60;;;;;;5031224;28;20044;-49
2023/12/05 01:32:00;;;;;;;1.13;0.93;;;19.80;33.60;;;;;;5033768;28;20021;-50
2023/12/05 01:34:25;;;;;;;1.38;1.00;;;19.70;33.50;;;;;;5033899;28;20029;-54
2023/12/05 01:36:51;;;;;;;1.63;1.15;;;19.70;33.60;;;;;;5033758;28;20030;-49
2023/12/05 01:39:17;;;;;;;1.30;1.10;;;19.70;33.50;;;;;;5033285;28;20371;-54
2023/12/05 01:41:43;;;;;;;1.08;0.90;;;19.70;33.60;;;;;;5033530;28;20037;-50
2023/12/05 01:44:09;;;;;;;1.48;0.98;;;19.70;33.60;;;;;;5024905;28;20044;-53
2023/12/05 01:46:35;;;;;;;2.75;1.15;;;19.70;33.60;;;;;;5052699;28;20440;-55
2023/12/05 01:49:01;;;;;;;1.10;1.00;;;19.70;33.60;;;;;;5048327;28;20056;-52
2023/12/05 01:51:27;;;;;;;1.23;0.88;;;19.70;33.60;;;;;;5046106;28;20325;-54
2023/12/05 01:53:55;;;;;;;1.00;0.90;;;19.70;33.60;;;;;;5047866;28;20029;-51
2023/12/05 01:56:21;;;;;;;1.02;0.93;;;19.70;33.60;;;;;;5046200;28;20098;-48
2023/12/05 01:58:47;;;;;;;1.15;1.00;;;19.70;33.70;;;;;;5045716;28;20029;-57
2023/12/05 02:01:15;;;;;;;1.17;0.98;;;19.70;34.30;;;;;;5041678;28;20025;-53
2023/12/05 02:03:43;;;;;;;1.10;0.98;;;19.70;33.70;;;;;;5044660;28;20025;-53
2023/12/05 02:06:10;;;;;;;1.10;1.00;;;19.70;33.70;;;;;;5039972;28;20029;-53
2023/12/05 02:08:37;;;;;;;1.10;1.00;;;19.70;33.70;;;;;;5038062;28;20450;-52
2023/12/05 02:11:03;;;;;;;1.13;1.00;;;19.60;33.70;;;;;;5037758;28;20025;-52
2023/12/05 02:13:28;;;;;;;1.20;1.05;;;19.60;33.70;;;;;;5045743;28;20438;-54
2023/12/05 02:16:09;;;;;;;1.17;1.08;;;19.70;33.70;;;;;;5045748;28;20040;-54
2023/12/05 02:18:43;;;;;;;1.13;1.02;;;19.60;33.70;;;;;;5040264;28;20047;-52
2023/12/05 02:21:15;;;;;;;1.08;0.90;;;19.60;33.70;;;;;;5037250;28;20039;-53
2023/12/05 02:23:47;;;;;;;1.35;1.05;;;19.70;33.80;;;;;;5035207;28;20379;-56
2023/12/05 02:26:51;;;;;;;0.90;0.90;;;19.60;33.70;;;;;;5043059;28;20064;-56
2023/12/05 02:29:18;;;;;;;1.17;1.00;;;19.60;33.70;;;;;;4926971;29;20444;-54
2023/12/05 02:31:43;;;;;;;1.38;1.05;;;19.60;34.40;;;;;;4939276;29;20275;-50
2023/12/05 02:34:10;;;;;;;1.20;1.00;;;19.60;33.70;;;;;;4993404;28;20349;-54
2023/12/05 02:36:57;;;;;;;1.20;1.02;;;19.60;33.70;;;;;;5042833;28;20128;-52
2023/12/05 02:39:40;;;;;;;1.20;0.93;;;19.60;33.70;;;;;;5042579;28;20026;-54
2023/12/05 02:42:10;;;;;;;1.30;1.02;;;19.50;33.70;;;;;;5041148;28;20041;-56
2023/12/05 02:44:48;;;;;;;1.02;0.90;;;19.50;33.70;;;;;;5029501;28;20372;-51
2023/12/05 02:47:15;;;;;;;1.55;1.23;;;19.60;33.80;;;;;;5044244;28;20332;-54
2023/12/05 02:49:41;;;;;;;1.30;1.20;;;19.50;33.70;;;;;;5035696;28;20049;-54
2023/12/05 02:52:07;;;;;;;1.02;0.93;;;19.50;33.70;;;;;;5036614;28;20096;-53
2023/12/05 02:54:33;;;;;;;1.20;1.10;;;19.50;33.70;;;;;;5040343;28;20168;-50
2023/12/05 02:56:59;;;;;;;1.55;1.30;;;19.50;33.70;;;;;;5049553;28;20052;-51
2023/12/05 02:59:25;;;;;;;1.23;1.05;;;19.50;33.70;;;;;;5039360;28;20029;-52
2023/12/05 03:01:51;;;;;;;1.15;1.02;;;19.50;33.70;;;;;;5034397;28;20029;-51
2023/12/05 03:04:17;;;;;;;0.82;0.80;;;19.50;33.80;;;;;;5038569;28;20044;-48
2023/12/05 03:06:44;;;;;;;1.38;1.02;;;19.50;33.70;;;;;;5036327;28;20032;-55
2023/12/05 03:09:10;;;;;;;1.00;0.90;;;19.50;33.80;;;;;;5036704;28;20041;-50
2023/12/05 03:11:35;;;;;;;1.63;1.20;;;19.50;33.70;;;;;;5045989;28;20384;-53
2023/12/05 03:14:03;;;;;;;1.38;1.00;;;19.50;33.80;;;;;;5038171;28;20029;-50
2023/12/05 03:16:29;;;;;;;1.10;0.98;;;19.50;33.70;;;;;;5039389;28;20047;-47
2023/12/05 03:18:55;;;;;;;1.13;1.02;;;19.50;33.80;;;;;;5039255;28;20037;-53
2023/12/05 03:21:21;;;;;;;1.13;1.02;;;19.50;33.80;;;;;;5048111;28;20356;-53
2023/12/05 03:23:47;;;;;;;1.08;0.98;;;19.50;33.70;;;;;;5046203;28;20025;-53
2023/12/05 03:26:17;;;;;;;1.38;1.20;;;19.50;33.70;;;;;;5036308;28;20100;-47
2023/12/05 03:28:43;;;;;;;1.42;1.20;;;19.50;33.80;;;;;;5041514;28;20045;-54
2023/12/05 03:31:09;;;;;;;1.85;1.23;;;19.50;33.70;;;;;;5043898;28;20061;-51
2023/12/05 03:33:37;;;;;;;1.40;1.15;;;19.50;33.80;;;;;;5028593;28;20479;-50
2023/12/05 03:36:03;;;;;;;1.25;1.00;;;19.50;33.80;;;;;;5049178;28;20516;-53
2023/12/05 03:38:29;;;;;;;1.08;0.98;;;19.50;33.80;;;;;;5042618;28;20439;-48
2023/12/05 03:40:55;;;;;;;1.40;1.30;;;19.40;33.70;;;;;;5017665;28;20044;-50
2023/12/05 03:43:22;;;;;;;1.40;1.17;;;19.40;33.70;;;;;;5026883;28;20038;-50
2023/12/05 03:45:48;;;;;;;1.20;1.10;;;19.40;33.70;;;;;;5026445;28;20033;-56
2023/12/05 03:48:14;;;;;;;1.30;1.20;;;19.50;33.80;;;;;;5046231;28;20131;-51
2023/12/05 03:50:41;;;;;;;1.52;1.25;;;19.40;33.70;;;;;;5037402;28;20056;-51
2023/12/05 03:53:07;;;;;;;1.20;1.10;;;19.40;33.70;;;;;;5025010;28;20017;-48
2023/12/05 03:55:36;;;;;;;2.72;0.90;;;19.40;33.70;;;;;;5053567;28;20064;-51
2023/12/05 03:58:02;;;;;;;1.42;1.25;;;19.40;33.70;;;;;;5033620;28;20108;-49
2023/12/05 04:00:28;;;;;;;1.20;1.10;;;19.40;33.70;;;;;;5048350;28;20075;-51
2023/12/05 04:02:55;;;;;;;1.30;1.20;;;19.40;33.70;;;;;;5043197;28;20037;-46
2023/12/05 04:05:21;;;;;;;1.20;1.10;;;19.40;33.70;;;;;;5044601;28;20475;-54
2023/12/05 04:07:47;;;;;;;1.38;1.20;;;19.40;33.80;;;;;;5044361;28;20033;-57
2023/12/05 04:10:13;;;;;;;1.08;0.98;;;19.40;33.80;;;;;;5046322;28;20048;-54
2023/12/05 04:12:39;;;;;;;1.15;1.05;;;19.40;33.80;;;;;;5042754;28;20056;-55
2023/12/05 04:15:06;;;;;;;1.50;1.05;;;19.40;33.80;;;;;;5049648;28;20071;-53
2023/12/05 04:17:33;;;;;;;1.30;1.20;;;19.40;33.80;;;;;;5039218;28;20064;-54
2023/12/05 04:19:59;;;;;;;1.15;1.05;;;19.40;33.80;;;;;;5052294;28;20049;-51
2023/12/05 04:22:25;;;;;;;1.20;1.10;;;19.40;33.80;;;;;;5042432;28;20456;-53
2023/12/05 04:24:51;;;;;;;1.15;1.00;;;19.40;33.80;;;;;;5038756;28;20025;-51
2023/12/05 04:27:16;;;;;;;1.20;0.95;;;19.30;33.80;;;;;;5039513;28;20432;-49
2023/12/05 04:29:43;;;;;;;1.30;1.10;;;19.30;33.80;;;;;;5024152;28;20044;-50
2023/12/05 04:32:09;;;;;;;1.20;1.10;;;19.40;33.80;;;;;;5044777;28;20021;-53
2023/12/05 04:34:35;;;;;;;1.20;1.10;;;19.30;33.80;;;;;;5041890;28;20074;-51
2023/12/05 04:37:01;;;;;;;1.30;1.10;;;19.30;34.40;;;;;;5037155;28;20032;-53
2023/12/05 04:39:27;;;;;;;1.55;1.20;;;19.30;33.80;;;;;;5043213;28;20025;-54
2023/12/05 04:41:53;;;;;;;1.42;1.10;;;19.30;33.80;;;;;;5023980;28;20033;-53
2023/12/05 04:44:18;;;;;;;1.60;1.30;;;19.30;33.80;;;;;;5034074;28;20029;-50
2023/12/05 04:46:44;;;;;;;1.33;1.17;;;19.30;33.80;;;;;;5016473;28;20033;-52
2023/12/05 04:49:10;;;;;;;2.38;1.30;;;19.30;33.80;;;;;;5033880;28;20041;-50
2023/12/05 04:51:36;;;;;;;1.58;1.33;;;19.30;33.80;;;;;;5033756;28;20083;-47
2023/12/05 04:54:03;;;;;;;1.40;1.30;;;19.30;33.80;;;;;;5034129;28;20033;-48
2023/12/05 04:56:29;;;;;;;1.52;1.35;;;19.30;33.80;;;;;;5033987;28;20826;-52
2023/12/05 04:58:54;;;;;;;1.52;1.33;;;19.30;33.80;;;;;;5031395;28;20052;-50
2023/12/05 05:01:20;;;;;;;1.17;1.05;;;19.30;33.80;;;;;;5034152;28;20029;-49
2023/12/05 05:03:46;;;;;;;1.30;1.17;;;19.30;33.80;;;;;;5033196;28;20025;-51
2023/12/05 05:06:12;;;;;;;1.33;1.20;;;19.30;33.90;;;;;;5033754;28;20029;-53
2023/12/05 05:08:38;;;;;;;1.40;1.20;;;19.30;33.80;;;;;;5033244;28;20380;-49
2023/12/05 05:11:04;;;;;;;1.42;1.30;;;19.30;33.80;;;;;;5034236;28;20048;-49
2023/12/05 05:13:30;;;;;;;1.13;1.02;;;19.30;33.80;;;;;;5016571;28;20112;-48
2023/12/05 05:15:55;;;;;;;1.10;1.00;;;19.30;33.90;;;;;;5033971;28;20528;-50
2023/12/05 05:18:21;;;;;;;1.17;1.08;;;19.30;33.90;;;;;;5033168;28;20032;-48
2023/12/05 05:20:47;;;;;;;1.30;1.20;;;19.30;33.90;;;;;;5033512;28;20437;-53
2023/12/05 05:23:13;;;;;;;2.22;1.10;;;19.30;33.90;;;;;;5016403;28;20056;-51
2023/12/05 05:25:39;;;;;;;1.25;1.05;;;19.30;33.90;;;;;;5033698;28;20029;-49
2023/12/05 05:28:04;;;;;;;1.10;1.00;;;19.20;33.80;;;;;;5033114;28;20349;-50
2023/12/05 05:30:30;;;;;;;1.10;1.00;;;19.20;33.80;;;;;;5031952;28;21618;-47
2023/12/05 05:33:03;;;;;;;1.50;1.30;;;19.20;33.80;;;;;;5032192;28;20329;-47
2023/12/05 05:35:29;;;;;;;1.33;1.15;;;19.20;33.80;;;;;;5033429;28;20044;-50
2023/12/05 05:37:54;;;;;;;1.50;1.20;;;19.20;33.80;;;;;;5026671;28;20030;-53
2023/12/05 05:40:20;;;;;;;1.10;1.02;;;19.20;33.90;;;;;;5033448;28;20474;-48
2023/12/05 05:42:46;;;;;;;1.05;0.95;;;19.20;33.90;;;;;;5024654;28;20114;-49
2023/12/05 05:45:12;;;;;;;1.13;1.02;;;19.20;33.90;;;;;;5052721;28;20325;-50
2023/12/05 05:47:38;;;;;;;1.17;1.02;;;19.20;33.90;;;;;;5052534;28;20386;-47
2023/12/05 05:50:05;;;;;;;1.48;1.13;;;19.20;33.90;;;;;;5053507;28;20036;-48
2023/12/05 05:52:31;;;;;;;1.17;1.00;;;19.20;33.90;;;;;;5053427;28;20089;-50
2023/12/05 05:54:56;;;;;;;1.30;1.20;;;19.20;33.90;;;;;;5035231;28;20116;-47
2023/12/05 05:57:22;;;;;;;1.25;1.10;;;19.20;33.90;;;;;;5052429;28;20021;-56
2023/12/05 05:59:48;;;;;;;1.73;1.30;;;19.10;33.80;;;;;;5052990;28;20543;-47
2023/12/05 06:02:14;;;;;;;1.27;1.10;;;19.20;33.90;;;;;;5052775;28;20021;-50
2023/12/05 06:04:41;;;;;;;1.33;1.02;;;19.10;33.80;;;;;;5053305;28;20040;-51
2023/12/05 06:07:07;;;;;;;1.10;1.00;;;19.10;33.80;;;;;;5052068;28;20439;-54
2023/12/05 06:09:34;;;;;;;1.30;1.10;;;19.20;33.90;;;;;;5034300;28;20364;-54
2023/12/05 06:12:00;;;;;;;1.20;1.10;;;19.20;33.90;;;;;;5035099;28;20033;-51
2023/12/05 06:14:26;;;;;;;1.33;1.10;;;19.10;33.90;;;;;;5052481;28;20067;-53
2023/12/05 06:16:52;;;;;;;1.20;1.08;;;19.20;33.90;;;;;;5052244;28;20129;-57
2023/12/05 06:19:18;;;;;;;0.98;0.90;;;19.10;33.90;;;;;;5052125;28;20036;-57
2023/12/05 06:21:44;;;;;;;1.10;1.00;;;19.10;33.90;;;;;;5052572;28;20375;-50
2023/12/05 06:24:10;;;;;;;1.42;1.00;;;19.10;33.90;;;;;;5052414;28;20025;-54
2023/12/05 06:26:36;;;;;;;1.27;0.93;;;19.10;33.90;;;;;;5034629;28;20535;-49
2023/12/05 06:29:08;;;;;;;1.20;1.00;;;19.10;34.50;;;;;;5052073;28;20108;-47
2023/12/05 06:31:34;;;;;;;1.00;0.90;;;19.10;33.90;;;;;;5034658;28;20052;-54
2023/12/05 06:33:59;;;;;;;1.00;0.90;;;19.10;33.90;;;;;;5052613;28;20067;-52
2023/12/05 06:36:25;;;;;;;0.90;0.90;;;19.10;33.90;;;;;;5052555;28;20112;-50
2023/12/05 06:38:51;;;;;;;0.95;0.90;;;19.10;33.90;;;;;;5052120;28;20029;-47
2023/12/05 06:41:17;;;;;;;1.00;0.90;;;19.10;33.90;;;;;;5052152;28;20021;-50
2023/12/05 06:43:43;;;;;;;1.15;1.05;;;19.10;33.90;;;;;;5034396;28;20056;-50
2023/12/05 06:46:09;;;;;;;1.20;1.10;;;19.10;33.90;;;;;;5014770;28;20041;-51
2023/12/05 06:48:35;;;;;;;0.90;0.90;;;19.10;33.90;;;;;;5029714;28;20030;-51
2023/12/05 06:51:01;;;;;;;1.38;1.08;;;19.10;33.90;;;;;;5032921;28;20400;-49
2023/12/05 06:53:27;;;;;;;1.30;1.20;;;19.10;33.90;;;;;;5032077;28;20044;-52
2023/12/05 06:55:54;;;;;;;1.00;0.90;;;19.10;33.90;;;;;;5032155;28;20029;-53
2023/12/05 06:58:21;;;;;;;1.17;1.08;;;19.00;33.90;;;;;;5030795;28;20029;-49
2023/12/05 07:00:48;;;;;;;1.10;1.00;;;19.10;34.00;;;;;;5036387;28;20116;-50
2023/12/05 07:03:15;;;;;;;1.00;0.90;;;19.10;34.00;;;;;;5034844;28;20060;-51
2023/12/05 07:05:41;;;;;;;1.13;1.02;;;19.00;33.90;;;;;;5035737;28;20117;-49
2023/12/05 07:08:07;;;;;;;0.93;0.82;;;19.10;34.00;;;;;;5035664;28;20101;-49
2023/12/05 07:10:33;;;;;;;1.00;0.90;;;19.00;34.00;;;;;;5035664;28;20192;-48
2023/12/05 07:12:59;;;;;;;1.15;1.05;;;19.00;34.00;;;;;;5036141;28;20415;-49
2023/12/05 07:15:24;;;;;;;1.17;1.08;;;19.00;34.00;;;;;;5036005;28;20132;-50
2023/12/05 07:17:50;;;;;;;1.58;1.27;;;19.10;34.00;;;;;;5035486;28;20036;-53
2023/12/05 07:20:16;;;;;;;1.27;1.15;;;19.00;34.00;;;;;;5035510;28;20025;-48
2023/12/05 07:22:45;;;;;;;1.13;1.02;;;19.00;34.00;;;;;;5018278;28;20417;-50
2023/12/05 07:25:11;;;;;;;1.20;1.10;;;19.00;34.00;;;;;;5035259;28;20057;-50
2023/12/05 07:27:38;;;;;;;1.27;1.17;;;19.00;34.00;;;;;;5035659;28;20103;-54
2023/12/05 07:30:04;;;;;;;1.25;1.13;;;19.00;34.00;;;;;;5035674;28;20081;-47
2023/12/05 07:32:30;;;;;;;1.30;1.20;;;19.00;34.00;;;;;;5032803;28;20456;-56
2023/12/05 07:34:56;;;;;;;1.75;0.95;;;19.00;34.00;;;;;;5035317;28;20109;-47
2023/12/05 07:37:22;;;;;;;1.50;1.40;;;19.00;34.00;;;;;;5036045;28;20048;-51
2023/12/05 07:39:48;;;;;;;1.50;1.23;;;19.00;34.00;;;;;;5034834;28;20034;-45
2023/12/05 07:42:14;;;;;;;1.48;1.33;;;19.00;34.00;;;;;;5037759;28;20049;-49
2023/12/05 07:44:40;;;;;;;1.48;1.38;;;19.00;34.00;;;;;;5041936;28;20095;-48
2023/12/05 07:47:07;;;;;;;1.42;1.33;;;19.00;34.00;;;;;;5050572;28;20025;-64
2023/12/05 07:49:34;;;;;;;1.65;1.13;;;19.00;34.10;;;;;;5049401;28;20029;-50
2023/12/05 07:52:00;;;;;;;1.67;1.35;;;19.00;34.20;;;;;;5042071;28;20033;-54
2023/12/05 07:54:26;;;;;;;1.85;1.40;;;19.00;34.20;;;;;;5041662;28;20078;-52
2023/12/05 07:56:52;;;;;;;2.42;1.65;;;19.00;34.30;;;;;;5037342;28;21268;-53
2023/12/05 07:59:18;;;;;;;1.65;1.30;;;19.00;34.30;;;;;;5020974;28;20033;-50
2023/12/05 08:01:46;;;;;;;1.80;1.33;;;19.00;34.20;;;;;;5040363;28;20021;-51
2023/12/05 08:04:12;;;;;;;1.77;1.55;;;19.00;34.20;;;;;;5046979;28;20329;-53
2023/12/05 08:06:38;;;;;;;1.50;1.10;;;19.10;34.20;;;;;;5046748;28;20037;-50
2023/12/05 08:09:04;;;;;;;1.52;1.20;;;19.10;34.10;;;;;;5037364;28;20033;-54
2023/12/05 08:11:30;;;;;;;1.33;1.23;;;19.20;34.10;;;;;;5043676;28;20163;-52
2023/12/05 08:13:56;;;;;;;1.55;1.30;;;19.20;34.10;;;;;;5040351;28;20049;-53
2023/12/05 08:16:22;;;;;;;1.63;1.30;;;19.30;34.10;;;;;;5026060;28;20033;-54
2023/12/05 08:18:47;;;;;;;2.10;1.10;;;19.30;34.10;;;;;;5044135;28;20036;-50
2023/12/05 08:21:13;;;;;;;1.75;1.38;;;19.30;34.00;;;;;;5039532;28;20453;-51
2023/12/05 08:23:39;;;;;;;1.67;1.15;;;19.30;34.00;;;;;;5044161;28;20034;-50
2023/12/05 08:26:05;;;;;;;1.20;1.00;;;19.40;34.00;;;;;;5053047;28;20376;-51
2023/12/05 08:28:34;;;;;;;1.55;1.00;;;19.40;33.90;;;;;;5049269;28;20021;-54
2023/12/05 08:31:00;;;;;;;1.77;1.38;;;19.50;33.90;;;;;;5040390;28;20069;-55
2023/12/05 08:33:26;;;;;;;1.50;1.17;;;19.50;33.80;;;;;;5011542;28;20061;-53
2023/12/05 08:35:52;;;;;;;1.33;1.10;;;19.50;33.80;;;;;;5045384;28;20029;-47
2023/12/05 08:38:18;;;;;;;0.90;0.63;;;19.60;33.80;;;;;;5039065;28;20502;-50
2023/12/05 08:40:44;;;;;;;1.10;0.90;;;19.60;33.80;;;;;;5037169;28;20034;-52
2023/12/05 08:43:10;;;;;;;1.23;0.90;;;19.70;33.80;;;;;;5040043;28;20041;-49
2023/12/05 08:45:36;;;;;;;1.10;0.90;;;19.70;33.70;;;;;;5034831;28;20052;-49
2023/12/05 08:48:02;;;;;;;1.73;0.80;;;19.70;33.70;;;;;;5035995;28;20417;-53
2023/12/05 08:50:28;;;;;;;0.95;0.88;;;19.70;33.60;;;;;;5032653;28;20033;-50
2023/12/05 08:52:54;;;;;;;1.15;1.00;;;19.80;33.60;;;;;;5032104;28;20041;-53
2023/12/05 08:55:20;;;;;;;1.10;1.00;;;19.80;33.60;;;;;;5034283;28;20037;-53
2023/12/05 08:57:46;;;;;;;1.30;0.90;;;19.80;33.50;;;;;;5034705;28;20053;-55
2023/12/05 09:00:12;;;;;;;1.00;0.90;;;19.80;33.40;;;;;;5032912;28;20411;-50
2023/12/05 09:02:38;;;;;;;1.15;0.90;;;19.90;33.50;;;;;;5035685;28;20025;-51
2023/12/05 09:05:04;;;;;;;1.10;0.80;;;19.90;33.40;;;;;;5036064;28;20030;-56
2023/12/05 09:07:30;;;;;;;1.73;1.10;;;19.90;33.40;;;;;;5017999;28;20044;-51
2023/12/05 09:09:56;;;;;;;0.80;0.70;;;19.90;33.40;;;;;;5036199;28;20034;-53
2023/12/05 09:12:23;;;;;;;1.38;0.80;;;19.90;33.40;;;;;;5036234;28;20052;-55
2023/12/05 09:14:49;;;;;;;0.98;0.90;;;19.90;33.30;;;;;;5035823;28;20457;-51
2023/12/05 09:17:15;;;;;;;0.80;0.77;;;20.00;33.30;;;;;;5035422;28;20057;-50
2023/12/05 09:19:41;;;;;;;1.10;1.00;;;20.00;33.30;;;;;;5035700;28;20425;-51
2023/12/05 09:22:06;;;;;;;1.02;0.93;;;20.00;33.30;;;;;;5035043;28;20021;-49
2023/12/05 09:24:32;;;;;;;1.15;0.88;;;20.00;33.20;;;;;;5035945;28;20039;-53
2023/12/05 09:26:58;;;;;;;1.60;0.95;;;20.00;33.20;;;;;;5035968;28;20025;-51
2023/12/05 09:29:24;;;;;;;1.10;0.95;;;20.00;33.10;;;;;;5036067;28;20029;-53
2023/12/05 09:31:50;;;;;;;1.10;0.80;;;20.00;33.10;;;;;;5035424;28;20384;-54
2023/12/05 09:34:16;;;;;;;0.70;0.70;;;20.00;33.10;;;;;;5034802;28;20025;-51
2023/12/05 09:36:42;;;;;;;1.42;1.02;;;20.00;33.10;;;;;;5018170;28;20341;-50
2023/12/05 09:39:08;;;;;;;1.13;0.80;;;20.10;33.10;;;;;;5035790;28;20030;-52
2023/12/05 09:41:40;;;;;;;1.33;0.75;;;20.10;33.10;;;;;;5035281;28;20468;-52
2023/12/05 09:44:08;;;;;;;0.90;0.80;;;20.00;33.10;;;;;;5046880;28;20048;-53
2023/12/05 09:46:39;;;;;;;0.80;0.73;;;20.10;33.10;;;;;;5055072;28;20448;-51
2023/12/05 09:49:08;;;;;;;1.00;0.88;;;20.10;33.10;;;;;;5040458;28;20372;-54
2023/12/05 09:51:35;;;;;;;0.80;0.77;;;20.00;33.00;;;;;;5022790;28;20045;-54
2023/12/05 09:54:02;;;;;;;0.80;0.75;;;20.00;33.00;;;;;;5015853;28;20034;-53
2023/12/05 09:56:28;;;;;;;0.98;0.80;;;20.00;33.00;;;;;;5021240;28;20038;-58
2023/12/05 09:58:54;;;;;;;0.95;0.82;;;20.10;33.10;;;;;;5048520;28;20029;-56
2023/12/05 10:01:25;;;;;;;0.85;0.70;;;20.10;33.00;;;;;;5035480;28;20098;-48
2023/12/05 10:03:58;;;;;;;1.55;1.02;;;20.00;33.00;;;;;;5043422;28;20025;-55
2023/12/05 10:06:25;;;;;;;0.80;0.80;;;20.00;33.00;;;;;;5035557;28;20029;-51
2023/12/05 10:08:52;;;;;;;1.17;0.90;;;20.00;33.00;;;;;;5049055;28;20075;-53
2023/12/05 10:11:24;;;;;;;1.38;1.00;;;20.00;33.00;;;;;;5053602;28;20041;-49
2023/12/05 10:13:50;;;;;;;1.10;0.95;;;20.00;33.00;;;;;;5054900;28;20056;-53
2023/12/05 10:16:17;;;;;;;1.20;1.00;;;20.00;33.00;;;;;;5055030;28;20116;-53
2023/12/05 10:18:46;;;;;;;1.20;1.10;;;20.00;33.00;;;;;;5045077;28;20451;-54
2023/12/05 10:21:12;;;;;;;1.60;0.85;;;20.00;33.00;;;;;;5036179;28;20033;-49
2023/12/05 10:23:38;;;;;;;0.77;0.77;;;20.00;33.00;;;;;;5052698;28;20086;-53
2023/12/05 10:26:04;;;;;;;1.10;0.90;;;20.00;33.00;;;;;;5054558;28;20116;-47
2023/12/05 10:28:30;;;;;;;1.10;0.90;;;20.00;33.00;;;;;;5055039;28;20057;-50
2023/12/05 10:30:57;;;;;;;1.63;0.90;;;20.00;33.00;;;;;;5054651;28;20036;-54
2023/12/05 10:33:23;;;;;;;1.77;1.30;;;20.00;33.00;;;;;;5056425;28;20029;-58
2023/12/05 10:35:49;;;;;;;1.08;0.98;;;20.00;33.60;;;;;;5019451;28;20124;-48
2023/12/05 10:38:17;;;;;;;1.20;1.00;;;20.00;32.90;;;;;;5035856;28;20048;-50
2023/12/05 10:40:54;;;;;;;1.15;0.93;;;20.00;33.60;;;;;;5038536;28;20097;-58
2023/12/05 10:43:21;;;;;;;1.60;1.20;;;20.00;32.90;;;;;;5048058;28;20124;-52
2023/12/05 10:45:48;;;;;;;1.10;0.90;;;20.00;32.90;;;;;;5057878;28;20021;-57
2023/12/05 10:48:15;;;;;;;1.38;1.10;;;20.00;32.90;;;;;;5057271;28;20085;-54
2023/12/05 10:50:43;;;;;;;1.40;1.20;;;20.00;32.90;;;;;;5057511;28;20044;-54
2023/12/05 10:53:09;;;;;;;1.38;1.10;;;20.00;32.90;;;;;;5056115;28;20067;-52
2023/12/05 10:55:36;;;;;;;1.52;1.05;;;20.00;32.90;;;;;;5057366;28;20021;-47
2023/12/05 10:58:02;;;;;;;1.02;0.93;;;20.00;32.90;;;;;;5057329;28;20063;-51
2023/12/05 11:00:29;;;;;;;1.00;0.80;;;20.00;32.90;;;;;;5058393;28;20032;-54
2023/12/05 11:02:56;;;;;;;1.05;0.95;;;20.00;32.90;;;;;;5058026;28;20043;-54
2023/12/05 11:05:23;;;;;;;1.35;1.20;;;20.00;32.90;;;;;;5058351;28;20080;-53
2023/12/05 11:07:50;;;;;;;1.55;1.30;;;20.00;32.90;;;;;;5057412;28;20056;-53
2023/12/05 11:10:17;;;;;;;1.52;1.10;;;20.00;32.90;;;;;;5057578;28;20041;-50
2023/12/05 11:12:48;;;;;;;1.05;0.95;;;20.00;32.90;;;;;;5038679;28;20033;-52
2023/12/05 11:15:16;;;;;;;1.42;1.20;;;20.10;32.90;;;;;;5057834;28;20036;-50
2023/12/05 11:17:50;;;;;;;1.20;1.10;;;20.00;32.90;;;;;;5057380;28;20104;-51
2023/12/05 11:20:40;;;;;;;1.27;1.00;;;20.00;32.90;;;;;;5057924;28;20189;-52
2023/12/05 11:23:35;;;;;;;1.52;1.02;;;20.10;33.00;;;;;;5039541;28;20140;-53
2023/12/05 11:26:01;;;;;;;;;;;20.00;33.00;;;;;;5057644;28;20021;-47
2023/12/05 11:28:58;;;;;;;0.98;0.85;;;20.10;33.10;;;;;;5065444;28;19908;-51
2023/12/05 11:32:03;;;;;;;0.90;0.90;;;20.10;33.10;;;;;;5032802;28;20141;-48
2023/12/05 11:34:57;;;;;;;1.73;1.38;;;20.10;33.20;;;;;;5051923;28;20470;-50
2023/12/05 11:38:08;;;;;;;1.33;1.10;;;20.10;33.30;;;;;;5039782;28;20383;-50
2023/12/05 11:40:35;;;;;;;1.60;1.05;;;20.10;33.50;;;;;;4977483;28;20034;-47
2023/12/05 11:43:08;;;;;;;1.52;1.20;;;20.10;33.60;;;;;;4943011;28;20067;-48
2023/12/05 11:45:41;;;;;;;2.30;1.15;;;20.20;33.80;;;;;;5011202;28;20106;-55
2023/12/05 11:48:10;;;;;;;1.00;0.82;;;20.20;33.90;;;;;;5034700;28;20038;-54
2023/12/05 11:50:40;;;;;;;2.95;1.20;;;20.30;34.00;;;;;;5046897;28;20044;-54
2023/12/05 11:53:08;;;;;;;1.92;1.10;;;20.30;34.00;;;;;;5037247;28;20407;-54
2023/12/05 11:55:35;;;;;;;1.42;1.10;;;20.30;34.10;;;;;;5050489;28;20031;-54
2023/12/05 11:58:01;;;;;;;0.95;0.90;;;20.30;34.10;;;;;;5046240;28;20058;-53
2023/12/05 12:00:27;;;;;;;1.27;1.05;;;20.40;34.10;;;;;;5030611;28;20029;-50
2023/12/05 12:02:58;;;;;;;2.65;0.90;;;20.40;34.10;;;;;;5028618;28;20369;-56
2023/12/05 12:05:24;;;;;;;1.10;0.88;;;20.40;34.20;;;;;;5032423;28;20511;-53
2023/12/05 12:07:53;;;;;;;1.13;1.02;;;20.40;34.20;;;;;;5040262;28;20029;-55
2023/12/05 12:10:20;;;;;;;1.60;1.00;;;20.40;34.20;;;;;;5041708;28;20037;-54
2023/12/05 12:12:46;;;;;;;1.33;1.00;;;20.50;34.30;;;;;;5037183;28;20025;-56
2023/12/05 12:15:14;;;;;;;1.50;1.00;;;20.50;34.30;;;;;;5037950;28;20030;-57
2023/12/05 12:17:44;;;;;;;3.83;1.08;;;20.50;34.30;;;;;;5041741;28;20115;-50
2023/12/05 12:20:14;;;;;;;1.45;1.00;;;20.60;34.40;;;;;;5045316;28;20403;-52
2023/12/05 12:22:43;;;;;;;1.70;1.30;;;20.60;34.50;;;;;;5047101;28;20021;-47
2023/12/05 12:25:13;;;;;;;1.33;1.00;;;20.60;34.50;;;;;;5046106;28;20052;-57
2023/12/05 12:27:44;;;;;;;3.17;1.00;;;20.60;34.60;;;;;;5035174;28;20067;-54
2023/12/05 12:30:17;;;;;;;2.53;1.00;;;20.70;34.80;;;;;;5042647;28;20055;-48
2023/12/05 12:32:53;;;;;;;1.92;1.60;;;20.70;34.70;;;;;;5039423;28;20471;-52
2023/12/05 12:35:22;;;;;;;3.67;1.30;;;20.70;34.60;;;;;;5042912;28;20119;-53
2023/12/05 12:37:52;;;;;;;3.42;1.95;;;20.70;34.50;;;;;;5039585;28;20033;-50
2023/12/05 12:40:19;;;;;;;3.15;1.40;;;20.70;34.60;;;;;;5035194;28;20111;-51
2023/12/05 12:42:51;;;;;;;3.90;1.48;;;20.70;34.50;;;;;;5054054;28;20250;-53
2023/12/05 12:45:17;;;;;;;2.70;1.75;;;20.80;34.50;;;;;;5035949;28;20462;-50
2023/12/05 12:47:43;;;;;;;3.35;1.80;;;20.80;34.50;;;;;;5063008;28;20033;-50
2023/12/05 12:50:09;;;;;;;4.20;1.55;;;20.80;35.10;;;;;;5060756;28;20424;-53